createdAt,value
2018-05-06T00:00:02.445Z,70.51
2018-05-06T00:01:02.528Z,70.51
2018-05-06T00:02:02.237Z,70.51
2018-05-06T00:03:02.259Z,69.93
2018-05-06T00:04:02.536Z,70.13
2018-05-06T00:05:02.561Z,70.51
2018-05-06T00:06:02.332Z,70.61
2018-05-06T00:07:02.605Z,70.8
2018-05-06T00:08:02.627Z,70.8
2018-05-06T00:09:02.651Z,70.99
2018-05-06T00:10:02.415Z,70.99
2018-05-06T00:11:02.691Z,70.9
2018-05-06T00:12:02.711Z,70.99
2018-05-06T00:13:02.742Z,70.99
2018-05-06T00:14:02.764Z,71.28
2018-05-06T00:15:02.787Z,71.09
2018-05-06T00:16:02.808Z,71.28
2018-05-06T00:17:02.831Z,71.37
2018-05-06T00:18:02.602Z,71.86
2018-05-06T00:19:02.880Z,71.44
2018-05-06T00:20:02.901Z,72.43
2018-05-06T00:21:02.922Z,71.28
2018-05-06T00:22:02.945Z,72.33
2018-05-06T00:23:02.966Z,71.66
2018-05-06T00:24:02.737Z,72.33
2018-05-06T00:25:03.013Z,71.76
2018-05-06T00:26:02.782Z,72.11
2018-05-06T00:27:03.057Z,72.14
2018-05-06T00:28:03.084Z,71.28
2018-05-06T00:29:03.110Z,72.33
2018-05-06T00:30:03.132Z,72.11
2018-05-06T00:31:02.893Z,72.01
2018-05-06T00:32:03.186Z,72.59
2018-05-06T00:33:03.192Z,72.68
2018-05-06T00:34:03.215Z,72.88
2018-05-06T00:35:03.237Z,72.68
2018-05-06T00:36:03.263Z,72.59
2018-05-06T00:37:03.051Z,72.59
2018-05-06T00:38:03.053Z,72.3
2018-05-06T00:39:03.074Z,72.68
2018-05-06T00:40:03.102Z,72.49
2018-05-06T00:41:03.375Z,72.11
2018-05-06T00:42:03.142Z,72.59
2018-05-06T00:43:03.420Z,72.49
2018-05-06T00:44:03.443Z,72.59
2018-05-06T00:45:03.469Z,72.3
2018-05-06T00:46:03.488Z,72.68
2018-05-06T00:47:03.512Z,72.59
2018-05-06T00:48:03.277Z,73.16
2018-05-06T00:49:03.300Z,73.26
2018-05-06T00:50:03.328Z,72.49
2018-05-06T00:51:03.344Z,72.97
2018-05-06T00:52:03.623Z,72.78
2018-05-06T00:53:03.642Z,72.49
2018-05-06T00:54:03.411Z,73.07
2018-05-06T00:55:03.690Z,73.16
2018-05-06T00:56:03.464Z,72.49
2018-05-06T00:57:03.737Z,73.16
2018-05-06T00:58:03.501Z,72.39
2018-05-06T00:59:03.523Z,72.68
2018-05-06T01:00:03.553Z,72.78
2018-05-06T01:01:03.824Z,72.68
2018-05-06T01:02:03.845Z,72.49
2018-05-06T01:03:03.867Z,72.68
2018-05-06T01:04:03.891Z,72.68
2018-05-06T01:05:03.918Z,72.59
2018-05-06T01:06:03.941Z,72.49
2018-05-06T01:07:03.960Z,73.07
2018-05-06T01:08:03.727Z,72.88
2018-05-06T01:09:04.000Z,73.16
2018-05-06T01:10:04.025Z,72.59
2018-05-06T01:11:03.794Z,72.68
2018-05-06T01:12:03.816Z,73.16
2018-05-06T01:13:04.087Z,73.45
2018-05-06T01:14:03.853Z,72.68
2018-05-06T01:15:04.134Z,72.78
2018-05-06T01:16:04.152Z,72.68
2018-05-06T01:17:03.959Z,72.68
2018-05-06T01:18:03.944Z,72.78
2018-05-06T01:19:04.227Z,72.59
2018-05-06T01:20:04.247Z,73.16
2018-05-06T01:21:04.011Z,73.35
2018-05-06T01:22:04.291Z,73.32
2018-05-06T01:23:04.062Z,73.45
2018-05-06T01:24:04.099Z,73.65
2018-05-06T01:25:04.103Z,73.26
2018-05-06T01:26:04.125Z,72.59
2018-05-06T01:27:04.403Z,72.78
2018-05-06T01:28:04.426Z,72.68
2018-05-06T01:29:04.190Z,73.26
2018-05-06T01:30:04.468Z,73.32
2018-05-06T01:31:04.490Z,73.22
2018-05-06T01:32:04.531Z,73.22
2018-05-06T01:33:04.545Z,73.16
2018-05-06T01:34:04.306Z,73.61
2018-05-06T01:35:04.595Z,73.41
2018-05-06T01:36:04.356Z,73.32
2018-05-06T01:37:04.695Z,73.26
2018-05-06T01:38:04.657Z,72.88
2018-05-06T01:39:04.674Z,72.59
2018-05-06T01:40:04.445Z,72.59
2018-05-06T01:41:04.459Z,72.39
2018-05-06T01:42:04.816Z,72.97
2018-05-06T01:43:04.760Z,73.26
2018-05-06T01:44:04.525Z,72.68
2018-05-06T01:45:04.802Z,72.49
2018-05-06T01:46:04.824Z,72.68
2018-05-06T01:47:04.845Z,72.68
2018-05-06T01:48:04.623Z,72.78
2018-05-06T01:49:04.637Z,72.97
2018-05-06T01:50:04.666Z,73.26
2018-05-06T01:51:04.943Z,72.59
2018-05-06T01:52:04.712Z,72.78
2018-05-06T01:53:04.732Z,72.68
2018-05-06T01:54:05.024Z,73.26
2018-05-06T01:55:05.031Z,72.88
2018-05-06T01:56:05.052Z,73.55
2018-05-06T01:57:05.074Z,73.07
2018-05-06T01:58:04.845Z,72.78
2018-05-06T01:59:05.120Z,72.97
2018-05-06T02:00:05.146Z,73.16
2018-05-06T02:01:05.163Z,72.68
2018-05-06T02:02:05.183Z,73.26
2018-05-06T02:03:05.206Z,72.88
2018-05-06T02:04:05.552Z,72.68
2018-05-06T02:05:05.263Z,72.68
2018-05-06T02:06:05.277Z,72.39
2018-05-06T02:07:05.297Z,72.68
2018-05-06T02:08:05.321Z,72.97
2018-05-06T02:09:05.340Z,73.26
2018-05-06T02:10:05.363Z,72.68
2018-05-06T02:11:05.135Z,72.3
2018-05-06T02:12:05.411Z,72.59
2018-05-06T02:13:05.176Z,72.11
2018-05-06T02:14:05.200Z,71.92
2018-05-06T02:15:05.223Z,72.11
2018-05-06T02:16:05.499Z,72.59
2018-05-06T02:17:05.277Z,72.2
2018-05-06T02:18:05.290Z,72.3
2018-05-06T02:19:05.622Z,72.01
2018-05-06T02:20:05.588Z,72.3
2018-05-06T02:21:05.355Z,72.39
2018-05-06T02:22:05.631Z,72.11
2018-05-06T02:23:05.653Z,72.01
2018-05-06T02:24:05.689Z,72.3
2018-05-06T02:25:05.699Z,72.3
2018-05-06T02:26:05.467Z,72.01
2018-05-06T02:27:05.746Z,72.2
2018-05-06T02:28:05.766Z,72.78
2018-05-06T02:29:05.530Z,72.78
2018-05-06T02:30:05.821Z,72.3
2018-05-06T02:31:05.835Z,72.2
2018-05-06T02:32:05.857Z,72.49
2018-05-06T02:33:05.883Z,73.16
2018-05-06T02:34:05.962Z,72.68
2018-05-06T02:35:06.127Z,72.39
2018-05-06T02:36:05.949Z,72.3
2018-05-06T02:37:05.971Z,72.39
2018-05-06T02:38:06.068Z,72.49
2018-05-06T02:39:05.752Z,72.59
2018-05-06T02:40:06.031Z,72.78
2018-05-06T02:41:05.821Z,72.39
2018-05-06T02:42:06.072Z,72.3
2018-05-06T02:43:06.098Z,72.59
2018-05-06T02:44:06.014Z,72.11
2018-05-06T02:45:06.152Z,72.2
2018-05-06T02:46:05.917Z,72.01
2018-05-06T02:47:06.282Z,71.82
2018-05-06T02:48:05.957Z,72.39
2018-05-06T02:49:06.040Z,72.59
2018-05-06T02:50:06.256Z,72.59
2018-05-06T02:51:06.276Z,73.22
2018-05-06T02:52:06.300Z,72.59
2018-05-06T02:53:06.319Z,72.59
2018-05-06T02:54:06.096Z,72.78
2018-05-06T02:55:06.374Z,73.26
2018-05-06T02:56:06.133Z,72.94
2018-05-06T02:57:06.420Z,73.03
2018-05-06T02:58:06.466Z,72.68
2018-05-06T02:59:06.253Z,72.88
2018-05-06T03:00:06.477Z,72.59
2018-05-06T03:01:06.504Z,72.88
2018-05-06T03:02:06.520Z,72.78
2018-05-06T03:03:06.291Z,72.68
2018-05-06T03:04:06.328Z,72.68
2018-05-06T03:05:06.335Z,72.39
2018-05-06T03:06:06.629Z,72.68
2018-05-06T03:07:06.634Z,72.78
2018-05-06T03:08:06.654Z,72.68
2018-05-06T03:09:06.421Z,72.49
2018-05-06T03:10:06.705Z,72.59
2018-05-06T03:11:06.721Z,72.49
2018-05-06T03:12:06.743Z,72.3
2018-05-06T03:13:06.767Z,72.78
2018-05-06T03:14:06.584Z,72.68
2018-05-06T03:15:06.811Z,72.68
2018-05-06T03:16:06.576Z,72.59
2018-05-06T03:17:06.849Z,72.59
2018-05-06T03:18:06.618Z,72.59
2018-05-06T03:19:06.895Z,72.49
2018-05-06T03:20:06.918Z,72.49
2018-05-06T03:21:06.939Z,72.97
2018-05-06T03:22:06.958Z,72.49
2018-05-06T03:23:06.985Z,72.39
2018-05-06T03:24:07.004Z,72.01
2018-05-06T03:25:07.026Z,72.49
2018-05-06T03:26:07.050Z,72.01
2018-05-06T03:27:07.068Z,72.01
2018-05-06T03:28:06.839Z,72.3
2018-05-06T03:29:07.163Z,71.92
2018-05-06T03:30:07.151Z,72.3
2018-05-06T03:31:07.177Z,71.53
2018-05-06T03:32:06.935Z,71.72
2018-05-06T03:33:07.209Z,72.11
2018-05-06T03:34:07.252Z,72.01
2018-05-06T03:35:07.256Z,72.01
2018-05-06T03:36:07.278Z,72.49
2018-05-06T03:37:07.300Z,72.78
2018-05-06T03:38:07.322Z,72.97
2018-05-06T03:39:07.090Z,72.68
2018-05-06T03:40:07.372Z,73.16
2018-05-06T03:41:07.386Z,72.78
2018-05-06T03:42:07.412Z,72.45
2018-05-06T03:43:07.434Z,73.22
2018-05-06T03:44:07.506Z,73.7
2018-05-06T03:45:07.476Z,73.51
2018-05-06T03:46:07.245Z,73.51
2018-05-06T03:47:07.521Z,73.41
2018-05-06T03:48:07.541Z,73.32
2018-05-06T03:49:07.567Z,73.41
2018-05-06T03:50:07.347Z,73.41
2018-05-06T03:51:07.615Z,73.22
2018-05-06T03:52:07.632Z,73.22
2018-05-06T03:53:07.399Z,73.32
2018-05-06T03:54:07.421Z,73.61
2018-05-06T03:55:07.697Z,73.51
2018-05-06T03:56:07.719Z,73.51
2018-05-06T03:57:07.751Z,73.41
2018-05-06T03:58:07.761Z,73.51
2018-05-06T03:59:07.580Z,73.51
2018-05-06T04:00:07.806Z,73.32
2018-05-06T04:01:07.834Z,73.22
2018-05-06T04:02:07.851Z,73.32
2018-05-06T04:03:07.867Z,73.22
2018-05-06T04:04:07.943Z,73.03
2018-05-06T04:05:07.661Z,73.41
2018-05-06T04:06:07.681Z,73.32
2018-05-06T04:07:07.961Z,73.28
2018-05-06T04:08:07.979Z,73.28
2018-05-06T04:09:07.999Z,73.47
2018-05-06T04:10:07.768Z,73.66
2018-05-06T04:11:08.056Z,73.57
2018-05-06T04:12:07.810Z,73.28
2018-05-06T04:13:08.087Z,73.86
2018-05-06T04:14:08.114Z,73.38
2018-05-06T04:15:08.133Z,73.28
2018-05-06T04:16:07.904Z,73.47
2018-05-06T04:17:07.921Z,72.99
2018-05-06T04:18:08.194Z,72.9
2018-05-06T04:19:08.268Z,72.71
2018-05-06T04:20:07.997Z,73.28
2018-05-06T04:21:08.007Z,72.61
2018-05-06T04:22:08.282Z,72.99
2018-05-06T04:23:08.049Z,72.52
2018-05-06T04:24:08.321Z,72.71
2018-05-06T04:25:08.094Z,73.19
2018-05-06T04:26:08.378Z,72.61
2018-05-06T04:27:08.390Z,72.71
2018-05-06T04:28:08.409Z,72.58
2018-05-06T04:29:08.184Z,72.61
2018-05-06T04:30:08.461Z,72.48
2018-05-06T04:31:08.482Z,72.29
2018-05-06T04:32:08.500Z,72.38
2018-05-06T04:33:08.524Z,72.19
2018-05-06T04:34:08.593Z,72.38
2018-05-06T04:35:08.571Z,72.67
2018-05-06T04:36:08.596Z,72.48
2018-05-06T04:37:08.353Z,72.38
2018-05-06T04:38:08.372Z,71.81
2018-05-06T04:39:08.647Z,72.58
2018-05-06T04:40:08.671Z,72.48
2018-05-06T04:41:08.693Z,72.96
2018-05-06T04:42:08.713Z,72.58
2018-05-06T04:43:08.758Z,72.67
2018-05-06T04:44:08.522Z,72.58
2018-05-06T04:45:08.788Z,72.67
2018-05-06T04:46:08.800Z,72.48
2018-05-06T04:47:08.571Z,72.38
2018-05-06T04:48:08.587Z,72
2018-05-06T04:49:08.911Z,72
2018-05-06T04:50:08.884Z,72.13
2018-05-06T04:51:08.913Z,71.27
2018-05-06T04:52:08.959Z,71.56
2018-05-06T04:53:08.702Z,70.89
2018-05-06T04:54:08.719Z,70.89
2018-05-06T04:55:08.739Z,70.6
2018-05-06T04:56:09.003Z,70.89
2018-05-06T04:57:09.025Z,70.41
2018-05-06T04:58:08.794Z,70.7
2018-05-06T04:59:09.130Z,69.93
2018-05-06T05:00:09.106Z,70.5
2018-05-06T05:01:09.135Z,70.7
2018-05-06T05:02:09.149Z,69.83
2018-05-06T05:03:08.916Z,69.54
2018-05-06T05:04:09.238Z,69.58
2018-05-06T05:05:08.957Z,69.68
2018-05-06T05:06:09.234Z,69.87
2018-05-06T05:07:09.251Z,69.29
2018-05-06T05:08:09.294Z,69.64
2018-05-06T05:09:09.043Z,69.74
2018-05-06T05:10:09.321Z,69.74
2018-05-06T05:11:09.346Z,69.83
2018-05-06T05:12:09.362Z,69.45
2018-05-06T05:13:09.131Z,69.83
2018-05-06T05:14:09.476Z,70.35
2018-05-06T05:15:09.431Z,69.74
2018-05-06T05:16:09.452Z,70.03
2018-05-06T05:17:09.484Z,69.83
2018-05-06T05:18:09.241Z,69.1
2018-05-06T05:19:09.522Z,69.1
2018-05-06T05:20:09.543Z,69.2
2018-05-06T05:21:09.564Z,69.1
2018-05-06T05:22:09.580Z,69.2
2018-05-06T05:23:09.613Z,69.83
2018-05-06T05:24:09.640Z,69.29
2018-05-06T05:25:09.653Z,68.91
2018-05-06T05:26:09.418Z,68.52
2018-05-06T05:27:09.698Z,68.91
2018-05-06T05:28:09.713Z,68.49
2018-05-06T05:29:09.787Z,68.78
2018-05-06T05:30:09.503Z,68.87
2018-05-06T05:31:09.782Z,68.43
2018-05-06T05:32:09.798Z,68.52
2018-05-06T05:33:09.820Z,67.95
2018-05-06T05:34:09.844Z,68.14
2018-05-06T05:35:09.869Z,68.49
2018-05-06T05:36:09.889Z,68.3
2018-05-06T05:37:09.917Z,68.87
2018-05-06T05:38:09.938Z,68.4
2018-05-06T05:39:09.958Z,68.4
2018-05-06T05:40:09.979Z,67.91
2018-05-06T05:41:09.743Z,67.47
2018-05-06T05:42:10.026Z,67.38
2018-05-06T05:43:10.049Z,67.38
2018-05-06T05:44:10.114Z,67.44
2018-05-06T05:45:10.089Z,67.28
2018-05-06T05:46:10.107Z,67.66
2018-05-06T05:47:10.138Z,67.09
2018-05-06T05:48:10.152Z,67.47
2018-05-06T05:49:09.922Z,67.09
2018-05-06T05:50:09.944Z,67.18
2018-05-06T05:51:10.224Z,67.85
2018-05-06T05:52:10.001Z,67.63
2018-05-06T05:53:10.268Z,67.72
2018-05-06T05:54:10.292Z,68.11
2018-05-06T05:55:10.054Z,67.91
2018-05-06T05:56:10.333Z,67.44
2018-05-06T05:57:10.353Z,67.54
2018-05-06T05:58:10.385Z,67.54
2018-05-06T05:59:10.456Z,67.44
2018-05-06T06:00:10.427Z,67.95
2018-05-06T06:01:10.437Z,67.47
2018-05-06T06:02:10.471Z,67.82
2018-05-06T06:03:10.492Z,67.72
2018-05-06T06:04:10.520Z,67.47
2018-05-06T06:05:10.281Z,66.99
2018-05-06T06:06:10.559Z,67.66
2018-05-06T06:07:10.586Z,67.66
2018-05-06T06:08:10.604Z,68.21
2018-05-06T06:09:10.632Z,67.18
2018-05-06T06:10:10.644Z,67.57
2018-05-06T06:11:10.671Z,68.14
2018-05-06T06:12:10.440Z,68.11
2018-05-06T06:13:10.725Z,68.11
2018-05-06T06:14:10.787Z,67.09
2018-05-06T06:15:10.761Z,66.61
2018-05-06T06:16:10.527Z,66.13
2018-05-06T06:17:10.553Z,66.03
2018-05-06T06:18:10.573Z,66.22
2018-05-06T06:19:10.856Z,65.55
2018-05-06T06:20:10.873Z,65.49
2018-05-06T06:21:10.895Z,65.55
2018-05-06T06:22:10.665Z,64.92
2018-05-06T06:23:10.940Z,64.72
2018-05-06T06:24:10.969Z,64.34
2018-05-06T06:25:10.988Z,64.43
2018-05-06T06:26:11.076Z,64.43
2018-05-06T06:27:10.776Z,64.05
2018-05-06T06:28:11.054Z,64.25
2018-05-06T06:29:10.864Z,63.86
2018-05-06T06:30:11.088Z,63.76
2018-05-06T06:31:10.859Z,63.57
2018-05-06T06:32:11.139Z,62.81
2018-05-06T06:33:11.161Z,62.36
2018-05-06T06:34:11.182Z,61.49
2018-05-06T06:35:10.954Z,60.75
2018-05-06T06:36:11.234Z,60.66
2018-05-06T06:37:10.997Z,61.24
2018-05-06T06:38:11.274Z,60.57
2018-05-06T06:39:11.374Z,60.08
2018-05-06T06:40:11.073Z,60.18
2018-05-06T06:41:11.362Z,59.8
2018-05-06T06:42:11.373Z,60.18
2018-05-06T06:43:11.400Z,60.95
2018-05-06T06:44:11.471Z,61.43
2018-05-06T06:45:11.442Z,61.3
2018-05-06T06:46:11.484Z,60.57
2018-05-06T06:47:11.485Z,60.66
2018-05-06T06:48:11.259Z,59.99
2018-05-06T06:49:11.535Z,59.8
2018-05-06T06:50:11.560Z,59.12
2018-05-06T06:51:11.580Z,58.77
2018-05-06T06:52:11.610Z,58.84
2018-05-06T06:53:11.630Z,58.17
2018-05-06T06:54:11.748Z,58.2
2018-05-06T06:55:11.419Z,58.87
2018-05-06T06:56:11.698Z,58.74
2018-05-06T06:57:11.725Z,59.12
2018-05-06T06:58:11.735Z,58.94
2018-05-06T06:59:11.809Z,58.84
2018-05-06T07:00:11.798Z,58.84
2018-05-06T07:01:11.819Z,58.29
2018-05-06T07:02:11.839Z,58.1
2018-05-06T07:03:11.869Z,57.43
2018-05-06T07:04:11.935Z,57.52
2018-05-06T07:05:11.910Z,56.37
2018-05-06T07:06:11.934Z,55.99
2018-05-06T07:07:11.957Z,55.41
2018-05-06T07:08:11.976Z,54.83
2018-05-06T07:09:11.849Z,55.12
2018-05-06T07:10:11.775Z,55.34
2018-05-06T07:11:11.805Z,55.12
2018-05-06T07:12:12.080Z,54.93
2018-05-06T07:13:12.099Z,54.93
2018-05-06T07:14:11.923Z,55.41
2018-05-06T07:15:11.893Z,54.74
2018-05-06T07:16:12.170Z,54.45
2018-05-06T07:17:12.206Z,54.57
2018-05-06T07:18:12.217Z,54
2018-05-06T07:19:12.355Z,53.61
2018-05-06T07:20:12.264Z,53.42
2018-05-06T07:21:12.040Z,52.75
2018-05-06T07:22:12.060Z,52.08
2018-05-06T07:23:12.337Z,52.08
2018-05-06T07:24:12.361Z,51.88
2018-05-06T07:25:12.382Z,51.4
2018-05-06T07:26:12.408Z,50.82
2018-05-06T07:27:12.177Z,50.27
2018-05-06T07:28:12.457Z,49.89
2018-05-06T07:29:12.488Z,49.12
2018-05-06T07:30:12.500Z,48.54
2018-05-06T07:31:12.532Z,48.08
2018-05-06T07:32:12.296Z,48.07
2018-05-06T07:33:12.579Z,47.58
2018-05-06T07:34:12.393Z,46.55
2018-05-06T07:35:12.623Z,46.64
2018-05-06T07:36:12.701Z,46.45
2018-05-06T07:37:12.675Z,46.93
2018-05-06T07:38:12.702Z,46.91
2018-05-06T07:39:12.465Z,46.23
2018-05-06T07:40:12.489Z,46.04
2018-05-06T07:41:12.513Z,45.78
2018-05-06T07:42:12.790Z,45.39
2018-05-06T07:43:12.818Z,44.72
2018-05-06T07:44:12.842Z,44.43
2018-05-06T07:45:12.611Z,44.72
2018-05-06T07:46:12.637Z,43.95
2018-05-06T07:47:12.917Z,44.17
2018-05-06T07:48:12.683Z,43.78
2018-05-06T07:49:12.758Z,43.78
2018-05-06T07:50:12.993Z,42.82
2018-05-06T07:51:13.019Z,43.11
2018-05-06T07:52:13.036Z,42.33
2018-05-06T07:53:12.808Z,42.63
2018-05-06T07:54:13.088Z,42.91
2018-05-06T07:55:13.106Z,41.76
2018-05-06T07:56:13.132Z,41.76
2018-05-06T07:57:13.155Z,41.66
2018-05-06T07:58:13.181Z,41.56
2018-05-06T07:59:13.210Z,41.56
2018-05-06T08:00:13.234Z,40.89
2018-05-06T08:01:13.257Z,41.38
2018-05-06T08:02:13.324Z,41.18
2018-05-06T08:03:13.307Z,41.18
2018-05-06T08:04:13.129Z,41.08
2018-05-06T08:05:13.363Z,40.61
2018-05-06T08:06:13.386Z,40.7
2018-05-06T08:07:13.148Z,41.08
2018-05-06T08:08:13.429Z,40.8
2018-05-06T08:09:13.467Z,40.99
2018-05-06T08:10:13.478Z,40.99
2018-05-06T08:11:13.503Z,40.8
2018-05-06T08:12:13.527Z,40.61
2018-05-06T08:13:13.554Z,40.12
2018-05-06T08:14:13.581Z,40.24
2018-05-06T08:15:13.601Z,39.76
2018-05-06T08:16:13.449Z,39.66
2018-05-06T08:17:13.653Z,39.11
2018-05-06T08:18:13.676Z,38.43
2018-05-06T08:19:13.497Z,38.33
2018-05-06T08:20:13.723Z,38.35
2018-05-06T08:21:13.497Z,37.56
2018-05-06T08:22:13.520Z,37.95
2018-05-06T08:23:13.798Z,37.66
2018-05-06T08:24:13.825Z,37.19
2018-05-06T08:25:13.848Z,37.29
2018-05-06T08:26:13.875Z,37.48
2018-05-06T08:27:13.903Z,37.39
2018-05-06T08:28:13.929Z,37.56
2018-05-06T08:29:13.947Z,37.46
2018-05-06T08:30:13.976Z,37.66
2018-05-06T08:31:13.752Z,37.58
2018-05-06T08:32:14.014Z,37.68
2018-05-06T08:33:13.791Z,37.48
2018-05-06T08:34:14.115Z,37.6
2018-05-06T08:35:14.097Z,37.5
2018-05-06T08:36:14.119Z,37.58
2018-05-06T08:37:13.890Z,37.29
2018-05-06T08:38:14.170Z,37.19
2018-05-06T08:39:14.193Z,36.93
2018-05-06T08:40:14.214Z,36.73
2018-05-06T08:41:13.987Z,37.13
2018-05-06T08:42:14.266Z,36.83
2018-05-06T08:43:14.042Z,36.94
2018-05-06T08:44:14.082Z,37.12
2018-05-06T08:45:14.340Z,37.6
2018-05-06T08:46:14.387Z,37.6
2018-05-06T08:47:14.430Z,37.41
2018-05-06T08:48:14.417Z,37.6
2018-05-06T08:49:14.492Z,37.41
2018-05-06T08:50:14.471Z,37.5
2018-05-06T08:51:14.256Z,37.98
2018-05-06T08:52:14.533Z,37.41
2018-05-06T08:53:14.558Z,37.02
2018-05-06T08:54:14.588Z,36.83
2018-05-06T08:55:14.603Z,36.63
2018-05-06T08:56:14.633Z,36.55
2018-05-06T08:57:14.658Z,36.46
2018-05-06T08:58:14.681Z,36.65
2018-05-06T08:59:14.474Z,36.17
2018-05-06T09:00:14.735Z,36.85
2018-05-06T09:01:14.762Z,36.46
2018-05-06T09:02:14.786Z,36.07
2018-05-06T09:03:14.808Z,36.19
2018-05-06T09:04:14.892Z,36.38
2018-05-06T09:05:14.861Z,35.9
2018-05-06T09:06:14.636Z,36.09
2018-05-06T09:07:14.663Z,36.09
2018-05-06T09:08:14.939Z,36.19
2018-05-06T09:09:14.967Z,35.9
2018-05-06T09:10:14.737Z,36
2018-05-06T09:11:15.108Z,36
2018-05-06T09:12:15.043Z,35.22
2018-05-06T09:13:15.084Z,35.34
2018-05-06T09:14:15.093Z,35.63
2018-05-06T09:15:14.868Z,35.52
2018-05-06T09:16:14.893Z,35.34
2018-05-06T09:17:15.175Z,34.76
2018-05-06T09:18:14.951Z,34.76
2018-05-06T09:19:15.273Z,34.47
2018-05-06T09:20:15.249Z,34.38
2018-05-06T09:21:15.275Z,34.2
2018-05-06T09:22:15.050Z,33.91
2018-05-06T09:23:15.327Z,34.1
2018-05-06T09:24:15.362Z,34.1
2018-05-06T09:25:15.385Z,34
2018-05-06T09:26:15.409Z,33.92
2018-05-06T09:27:15.433Z,34.02
2018-05-06T09:28:15.469Z,34
2018-05-06T09:29:15.482Z,34.29
2018-05-06T09:30:15.510Z,34.78
2018-05-06T09:31:15.543Z,34.48
2018-05-06T09:32:15.668Z,34.1
2018-05-06T09:33:15.596Z,34.1
2018-05-06T09:34:15.419Z,33.91
2018-05-06T09:35:15.653Z,33.62
2018-05-06T09:36:15.679Z,32.57
2018-05-06T09:37:15.450Z,32.2
2018-05-06T09:38:15.723Z,31.52
2018-05-06T09:39:15.752Z,30.66
2018-05-06T09:40:15.781Z,30.86
2018-05-06T09:41:15.812Z,30.58
2018-05-06T09:42:15.586Z,30.29
2018-05-06T09:43:15.862Z,30.21
2018-05-06T09:44:15.892Z,29.63
2018-05-06T09:45:15.926Z,29.63
2018-05-06T09:46:15.957Z,29.24
2018-05-06T09:47:15.988Z,28.68
2018-05-06T09:48:16.014Z,28.49
2018-05-06T09:49:16.089Z,28.39
2018-05-06T09:50:16.071Z,28.29
2018-05-06T09:51:16.127Z,27.62
2018-05-06T09:52:16.127Z,27.62
2018-05-06T09:53:16.156Z,26.87
2018-05-06T09:54:16.187Z,26.39
2018-05-06T09:55:15.957Z,26.2
2018-05-06T09:56:16.243Z,25.9
2018-05-06T09:57:16.279Z,25.82
2018-05-06T09:58:16.053Z,25.53
2018-05-06T09:59:16.334Z,24.85
2018-05-06T10:00:16.364Z,24.96
2018-05-06T10:01:16.398Z,24.87
2018-05-06T10:02:16.423Z,24
2018-05-06T10:03:16.470Z,24
2018-05-06T10:04:16.534Z,23.43
2018-05-06T10:05:16.514Z,22.96
2018-05-06T10:06:16.570Z,22.09
2018-05-06T10:07:16.325Z,22.09
2018-05-06T10:08:16.412Z,21.99
2018-05-06T10:09:16.637Z,21.61
2018-05-06T10:10:16.680Z,21.71
2018-05-06T10:11:16.698Z,21.51
2018-05-06T10:12:16.480Z,21.42
2018-05-06T10:13:16.759Z,21.32
2018-05-06T10:14:16.935Z,21.42
2018-05-06T10:15:16.813Z,21.12
2018-05-06T10:16:16.844Z,20.95
2018-05-06T10:17:16.629Z,19.98
2018-05-06T10:18:16.656Z,20.09
2018-05-06T10:19:16.992Z,19.12
2018-05-06T10:20:16.974Z,19.21
2018-05-06T10:21:17.013Z,19.21
2018-05-06T10:22:16.857Z,19.51
2018-05-06T10:23:17.080Z,18.73
2018-05-06T10:24:17.106Z,19.41
2018-05-06T10:25:17.153Z,19.32
2018-05-06T10:26:16.934Z,18.63
2018-05-06T10:27:17.207Z,18.92
2018-05-06T10:28:16.992Z,19.41
2018-05-06T10:29:17.269Z,19.31
2018-05-06T10:30:17.048Z,18.63
2018-05-06T10:31:17.333Z,18.73
2018-05-06T10:32:17.366Z,18.54
2018-05-06T10:33:17.395Z,18.54
2018-05-06T10:34:17.480Z,18.35
2018-05-06T10:35:17.459Z,17.96
2018-05-06T10:36:17.241Z,17.19
2018-05-06T10:37:17.532Z,17.49
2018-05-06T10:38:17.561Z,17.1
2018-05-06T10:39:17.591Z,16.73
2018-05-06T10:40:17.621Z,16.44
2018-05-06T10:41:17.655Z,16.35
2018-05-06T10:42:17.759Z,15.95
2018-05-06T10:43:17.721Z,16.25
2018-05-06T10:44:17.904Z,16.24
2018-05-06T10:45:17.787Z,16.44
2018-05-06T10:46:17.820Z,16.05
2018-05-06T10:47:17.599Z,15.47
2018-05-06T10:48:17.885Z,15.86
2018-05-06T10:49:17.924Z,16.24
2018-05-06T10:50:18.065Z,17.11
2018-05-06T10:51:17.982Z,16.32
2018-05-06T10:52:17.761Z,16.24
2018-05-06T10:53:18.057Z,16.53
2018-05-06T10:54:18.083Z,18.27
2018-05-06T10:55:18.117Z,18.24
2018-05-06T10:56:18.149Z,17.27
2018-05-06T10:57:18.197Z,17.19
2018-05-06T10:58:18.218Z,17.49
2018-05-06T10:59:18.048Z,16.61
2018-05-06T11:00:18.284Z,16.42
2018-05-06T11:01:18.320Z,15.95
2018-05-06T11:02:18.427Z,16.24
2018-05-06T11:03:18.383Z,15.66
2018-05-06T11:04:18.162Z,16.05
2018-05-06T11:05:18.447Z,15.37
2018-05-06T11:06:18.478Z,15.86
2018-05-06T11:07:18.511Z,16.25
2018-05-06T11:08:18.546Z,15.56
2018-05-06T11:09:18.585Z,15.18
2018-05-06T11:10:18.687Z,14.99
2018-05-06T11:11:18.396Z,14.61
2018-05-06T11:12:18.430Z,15.19
2018-05-06T11:13:18.718Z,15.38
2018-05-06T11:14:18.547Z,15.37
2018-05-06T11:15:18.530Z,14.79
2018-05-06T11:16:18.818Z,14.12
2018-05-06T11:17:18.851Z,14.12
2018-05-06T11:18:18.888Z,14.03
2018-05-06T11:19:18.673Z,14.03
2018-05-06T11:20:18.701Z,14.14
2018-05-06T11:21:18.731Z,13.54
2018-05-06T11:22:18.765Z,13.16
2018-05-06T11:23:18.799Z,12.87
2018-05-06T11:24:18.831Z,13.26
2018-05-06T11:25:19.119Z,12.77
2018-05-06T11:26:19.330Z,12.67
2018-05-06T11:27:18.936Z,13.07
2018-05-06T11:28:19.226Z,13.17
2018-05-06T11:29:19.305Z,12.09
2018-05-06T11:30:19.292Z,11.71
2018-05-06T11:31:19.076Z,11.71
2018-05-06T11:32:19.366Z,11.99
2018-05-06T11:33:19.432Z,11.99
2018-05-06T11:34:19.430Z,12.19
2018-05-06T11:35:19.476Z,11.8
2018-05-06T11:36:19.496Z,11.6
2018-05-06T11:37:19.532Z,11.8
2018-05-06T11:38:19.569Z,12
2018-05-06T11:39:19.600Z,12.48
2018-05-06T11:40:19.642Z,11.99
2018-05-06T11:41:19.669Z,11.51
2018-05-06T11:42:19.453Z,11.71
2018-05-06T11:43:19.482Z,11.32
2018-05-06T11:44:19.921Z,11.52
2018-05-06T11:45:19.801Z,11.13
2018-05-06T11:46:19.840Z,10.83
2018-05-06T11:47:19.622Z,10.54
2018-05-06T11:48:19.914Z,10.35
2018-05-06T11:49:19.948Z,10.35
2018-05-06T11:50:19.726Z,10.14
2018-05-06T11:51:20.025Z,10.05
2018-05-06T11:52:20.056Z,10.05
2018-05-06T11:53:20.093Z,10.64
2018-05-06T11:54:20.125Z,10.16
2018-05-06T11:55:20.159Z,11.04
2018-05-06T11:56:20.265Z,11.03
2018-05-06T11:57:19.974Z,10.93
2018-05-06T11:58:20.266Z,11.22
2018-05-06T11:59:20.355Z,11.02
2018-05-06T12:00:20.337Z,11.03
2018-05-06T12:01:20.369Z,11.02
2018-05-06T12:02:20.207Z,10.53
2018-05-06T12:03:20.443Z,10.54
2018-05-06T12:04:20.479Z,10.45
2018-05-06T12:05:20.510Z,9.77
2018-05-06T12:06:20.550Z,9.87
2018-05-06T12:07:20.417Z,9.28
2018-05-06T12:08:20.364Z,9.48
2018-05-06T12:09:20.660Z,9.97
2018-05-06T12:10:20.698Z,9.48
2018-05-06T12:11:20.726Z,8.98
2018-05-06T12:12:20.761Z,9.38
2018-05-06T12:13:20.804Z,9.08
2018-05-06T12:14:20.987Z,9.28
2018-05-06T12:15:20.870Z,8.69
2018-05-06T12:16:20.914Z,9.29
2018-05-06T12:17:20.690Z,9.58
2018-05-06T12:18:20.983Z,9.38
2018-05-06T12:19:21.011Z,9.97
2018-05-06T12:20:21.044Z,9.86
2018-05-06T12:21:21.079Z,10.36
2018-05-06T12:22:21.117Z,9.56
2018-05-06T12:23:20.901Z,9.56
2018-05-06T12:24:21.186Z,8.98
2018-05-06T12:25:21.224Z,8.99
2018-05-06T12:26:21.273Z,8.4
2018-05-06T12:27:21.311Z,8.8
2018-05-06T12:28:21.349Z,8.7
2018-05-06T12:29:21.177Z,8.61
2018-05-06T12:30:21.419Z,9
2018-05-06T12:31:21.452Z,8.7
2018-05-06T12:32:21.490Z,8.4
2018-05-06T12:33:21.529Z,8.81
2018-05-06T12:34:21.307Z,9
2018-05-06T12:35:21.607Z,9.19
2018-05-06T12:36:21.638Z,8.4
2018-05-06T12:37:21.677Z,8.41
2018-05-06T12:38:21.456Z,8.41
2018-05-06T12:39:21.494Z,8.51
2018-05-06T12:40:21.783Z,8.12
2018-05-06T12:41:21.817Z,8.02
2018-05-06T12:42:21.602Z,7.72
2018-05-06T12:43:21.953Z,7.92
2018-05-06T12:44:21.826Z,7.93
2018-05-06T12:45:21.967Z,7.54
2018-05-06T12:46:21.750Z,7.83
2018-05-06T12:47:22.065Z,7.83
2018-05-06T12:48:22.079Z,7.72
2018-05-06T12:49:21.872Z,7.63
2018-05-06T12:50:22.161Z,7.53
2018-05-06T12:51:22.191Z,7.14
2018-05-06T12:52:22.225Z,7.14
2018-05-06T12:53:22.274Z,7.53
2018-05-06T12:54:22.046Z,7.43
2018-05-06T12:55:22.577Z,7.33
2018-05-06T12:56:22.370Z,8.03
2018-05-06T12:57:22.406Z,7.82